KPVB

Platteville Municipal Airport

Platteville, Wisconsin, USA
METAR KPVB 231435Z AUTO 18006KT 10SM BKN070 19/17 A3021 RMK AO1 T01910174
Observed Flight Rules
May-23 @ 14:35 UTC (36 minutes ago) Visual Flight Rules
Wind Visibility Clouds
180° at 6 knots 10 miles
  • Broken at 7,000' AGL
Temperatures Readings
Current 19°C / 66°F
Dewpoint 17°C / 63°F
Humidity 88%
Altimeter 30.21" Hg
Pressure 1023 hPa
Elevation 313
METAR KPVB 231435Z AUTO 18006KT 10SM BKN070 19/17 A3021 RMK AO1 T01910174
Observed Flight Rules
May-23 @ 14:35 UTC
(36 minutes ago)
VFR
Wind Visibility
180° at 6 knots 10 miles
Clouds
  • Broken at 7,000' AGL
Temperature Dewpoint
19°C / 66°F 17°C / 63°F
Humidity Altimeter Pressure
88% 30.21" Hg 1023 hPa